Lop Buri, Thailand

4:14 AM ICT on July 26, 2014 (GMT +0700)
Bangkok International (VTBD) Elev 13 ft | 13.92 °N, 100.61 °E | Change Station

Current weather conditions updated 14 minutes ago

Mostly Cloudy
Mostly Cloudy
82 °F
Feels Like 87 °F
N
6
Wind Variable Wind from WSW

Today is forecast to be Cooler than yesterday. Showers and thunderstorms late.

Today
High -- | Low -- °F
--% Chance of Precip.
Yesterday
High -- | Low -- °F
Precip. -- in
5:58 AM 6:49 PM
Waning Crescent, 1% visible
Pressure 29.74 in
Visibility 6.2 miles
Clouds Few 2000 ft
Scattered Clouds 12000 ft
Mostly Cloudy 30000 ft
Heat Index 87 °F
Dew Point 72 °F
Humidity 70%
Rainfall 0.00 in
Snow Depth Not available.
UV 0 out of 12
Pollen Not available.
Air Quality Not available.
Flu Activity Not available.
METAR VTBD 252100Z 24005KT 9999 FEW020 SCT120 BKN300 28/22 Q1007 NOSIG

More Conditions Fewer Conditions

Pressure 29.74 in
Visibility 6.2 miles
Clouds Few 2000 ft
Scattered Clouds 12000 ft
Mostly Cloudy 30000 ft
Heat Index 87 °F
Dew Point 72 °F
Humidity 70%
Rainfall 0.00 in
Snow Depth Not available.
UV 0 out of 12
Pollen Not available.
Air Quality Not available.
Flu Activity Not available.
METAR VTBD 252100Z 24005KT 9999 FEW020 SCT120 BKN300 28/22 Q1007 NOSIG

More Conditions Fewer Conditions

10-Day Weather Forecast

Almanac

Astronomy

Jul. 26, 2014 Rise Set
Actual Time 5:58 AM ICT 6:49 PM ICT
Civil Twilight 5:35 AM ICT 7:11 PM ICT
Nautical Twilight 5:08 AM ICT 7:38 PM ICT
Astronomical Twilight 4:41 AM ICT 8:06 PM ICT
Moon 5:15 AM ICT (7/26) 6:14 PM ICT (7/26)
Length of Visible Light 13h 36m
Length of Day
12h 50m
Tomorrow will be 0m 33s shorter.
Waning Crescent, 1% of the Moon is Illuminated
Jul 25
Waning Crescent
Jul 26
New
Aug 3
First Quarter
Aug 10
Full
Aug 17
Last Quarter

Yesterday's Extremes

Country Highs Country Lows

Community

WunderPhotos

Upload Photos

1,737,402 photos uploaded!

Nearby

Snow Depth

Not available.

Earthquake Activity

City Distance Mag. Time & Date
No recent earthquake activity has been reported nearby.
Minimum magnitude displayed is 2.5.

Coastal Water Temperatures

Place Temperature
No Stations Reporting

Nearby Weather Stations

There are no personal weather stations in this area.